Terminal Aerodrome Forecast
Issued by NWS

Home | Current Version | Previous Version | Text Only | Print | Product List | Glossary On
Versions: 1 2 3 4 5 6 7 8 9 10 11 12 13 14
000
FTUS44 KSJT 252300
TAFSOA
TAF
KSOA 252337Z 2600/2624 17011KT P6SM BKN250
     FM261000 18008KT P6SM SCT012 BKN250
     FM261600 19010KT P6SM BKN250=

USA.gov is the U.S. government's official web portal to all federal, state and local government web resources and services.